Archival Weather

Los Angeles Intl

Los Angeles, California (KLAX)

Report from: Saturday, February 24, 2024 10:53 AM PST
Current time: Tuesday, April 23, 2024 1:10 AM PDT

Current weather – Weather history – Daily summaries
Weather forecast

Temperature17.8°C (64.0°F)
Dew point10.0°C (50.0°F)
Winds 5 kts (2.6 m/s, 5.8 mph) West (260°)
Visibility10 mi. (16.1 km)
Clouds Ceiling: Broken clouds 15,000 ft. (4,572 m)
Overcast 22,000 ft. (6,706 m)
Altimeter30.06 in.Hg (1018 mB)
Relative humidity60 %
Density altitude354 ft. (108 m)
Sea-level pressure101.8 kPa (1018 mB, 30.05 in.Hg)
Remarks System requires maintenance
Automated weather observing station with precipitation discriminator
Flight conditions Visual Meteorological Conditions
Raw dataKLAX 241853Z 26005KT 10SM BKN150 OVC220 18/10 A3006 RMK AO2 SLP177 T01780100 $
An error has occurred. This application may no longer respond until reloaded. Reload 🗙